sensor_id;sensor_type;location;lat;lon;timestamp;pressure;altitude;pressure_sealevel;temperature;humidity
9525;BME280;15940;48.734;9.112;2023-05-18T00:01:16;97137.06;;;7.47;75.10
9525;BME280;15940;48.734;9.112;2023-05-18T00:03:43;97135.72;;;7.61;74.68
9525;BME280;15940;48.734;9.112;2023-05-18T00:06:10;97132.13;;;7.55;73.79
9525;BME280;15940;48.734;9.112;2023-05-18T00:08:37;97133.91;;;7.58;73.22
9525;BME280;15940;48.734;9.112;2023-05-18T00:11:05;97133.78;;;7.52;73.46
9525;BME280;15940;48.734;9.112;2023-05-18T00:13:32;97127.03;;;7.48;74.04
9525;BME280;15940;48.734;9.112;2023-05-18T00:15:59;97122.53;;;7.54;73.78
9525;BME280;15940;48.734;9.112;2023-05-18T00:18:27;97118.97;;;7.38;73.73
9525;BME280;15940;48.734;9.112;2023-05-18T00:20:55;97123.19;;;7.30;74.20
9525;BME280;15940;48.734;9.112;2023-05-18T00:23:25;97122.13;;;7.28;74.64
9525;BME280;15940;48.734;9.112;2023-05-18T00:25:56;97119.75;;;7.21;75.24
9525;BME280;15940;48.734;9.112;2023-05-18T00:28:23;97113.16;;;7.12;74.95
9525;BME280;15940;48.734;9.112;2023-05-18T00:30:50;97109.72;;;7.12;75.13
9525;BME280;15940;48.734;9.112;2023-05-18T00:33:17;97114.94;;;7.25;74.83
9525;BME280;15940;48.734;9.112;2023-05-18T00:35:45;97114.94;;;7.25;74.11
9525;BME280;15940;48.734;9.112;2023-05-18T00:38:12;97111.19;;;6.95;74.08
9525;BME280;15940;48.734;9.112;2023-05-18T00:40:41;97115.97;;;6.81;75.22
9525;BME280;15940;48.734;9.112;2023-05-18T00:43:08;97114.78;;;6.82;75.26
9525;BME280;15940;48.734;9.112;2023-05-18T00:45:36;97108.31;;;6.62;76.32
9525;BME280;15940;48.734;9.112;2023-05-18T00:48:03;97113.84;;;6.58;76.53
9525;BME280;15940;48.734;9.112;2023-05-18T00:50:30;97116.56;;;6.67;76.61
9525;BME280;15940;48.734;9.112;2023-05-18T00:52:58;97111.34;;;6.91;76.67
9525;BME280;15940;48.734;9.112;2023-05-18T00:55:26;97112.50;;;6.72;77.06
9525;BME280;15940;48.734;9.112;2023-05-18T00:57:54;97108.34;;;6.80;76.79
9525;BME280;15940;48.734;9.112;2023-05-18T01:00:22;97110.44;;;6.76;75.69
9525;BME280;15940;48.734;9.112;2023-05-18T01:02:49;97109.53;;;6.70;77.04
9525;BME280;15940;48.734;9.112;2023-05-18T01:05:16;97099.03;;;6.63;76.42
9525;BME280;15940;48.734;9.112;2023-05-18T01:07:44;97102.19;;;6.79;77.12
9525;BME280;15940;48.734;9.112;2023-05-18T01:10:16;97101.75;;;6.81;75.32
9525;BME280;15940;48.734;9.112;2023-05-18T01:12:48;97099.94;;;6.59;76.04
9525;BME280;15940;48.734;9.112;2023-05-18T01:15:19;97096.81;;;6.70;77.45
9525;BME280;15940;48.734;9.112;2023-05-18T01:18:03;97098.75;;;6.70;75.06
9525;BME280;15940;48.734;9.112;2023-05-18T01:20:38;97099.00;;;6.53;78.34
9525;BME280;15940;48.734;9.112;2023-05-18T01:23:44;97093.50;;;6.57;77.07
9525;BME280;15940;48.734;9.112;2023-05-18T01:26:22;97104.56;;;6.59;77.72
9525;BME280;15940;48.734;9.112;2023-05-18T01:28:55;97103.25;;;6.64;76.88
9525;BME280;15940;48.734;9.112;2023-05-18T01:31:24;97103.84;;;6.68;77.28
9525;BME280;15940;48.734;9.112;2023-05-18T01:33:51;97102.81;;;6.74;77.17
9525;BME280;15940;48.734;9.112;2023-05-18T01:36:18;97107.59;;;6.79;76.49
9525;BME280;15940;48.734;9.112;2023-05-18T01:38:46;97102.66;;;6.78;76.62
9525;BME280;15940;48.734;9.112;2023-05-18T01:41:20;97103.56;;;6.84;76.63
9525;BME280;15940;48.734;9.112;2023-05-18T01:43:54;97098.91;;;6.75;77.64
9525;BME280;15940;48.734;9.112;2023-05-18T01:46:34;97089.94;;;6.78;77.39
9525;BME280;15940;48.734;9.112;2023-05-18T01:49:08;97089.63;;;6.67;77.22
9525;BME280;15940;48.734;9.112;2023-05-18T01:51:43;97089.63;;;6.67;77.31
9525;BME280;15940;48.734;9.112;2023-05-18T01:54:11;97087.66;;;6.58;77.73
9525;BME280;15940;48.734;9.112;2023-05-18T01:56:41;97095.28;;;6.60;78.37
9525;BME280;15940;48.734;9.112;2023-05-18T01:59:09;97091.84;;;6.59;77.09
9525;BME280;15940;48.734;9.112;2023-05-18T02:01:37;97098.00;;;6.60;77.70
9525;BME280;15940;48.734;9.112;2023-05-18T02:04:07;97097.72;;;6.67;77.65
9525;BME280;15940;48.734;9.112;2023-05-18T02:06:34;97094.28;;;6.67;77.09
9525;BME280;15940;48.734;9.112;2023-05-18T02:09:03;97090.94;;;6.53;77.55
9525;BME280;15940;48.734;9.112;2023-05-18T02:11:30;97087.09;;;6.64;78.08
9525;BME280;15940;48.734;9.112;2023-05-18T02:13:58;97094.81;;;6.52;75.69
9525;BME280;15940;48.734;9.112;2023-05-18T02:16:25;97090.91;;;6.44;77.63
9525;BME280;15940;48.734;9.112;2023-05-18T02:18:52;97089.44;;;6.43;78.44
9525;BME280;15940;48.734;9.112;2023-05-18T02:21:19;97090.16;;;6.44;77.84
9525;BME280;15940;48.734;9.112;2023-05-18T02:23:46;97082.53;;;6.33;77.90
9525;BME280;15940;48.734;9.112;2023-05-18T02:26:13;97085.38;;;6.29;77.88
9525;BME280;15940;48.734;9.112;2023-05-18T02:28:40;97086.56;;;6.28;78.83
9525;BME280;15940;48.734;9.112;2023-05-18T02:31:10;97081.47;;;6.30;78.89
9525;BME280;15940;48.734;9.112;2023-05-18T02:33:37;97077.59;;;6.32;79.07
9525;BME280;15940;48.734;9.112;2023-05-18T02:36:07;97076.56;;;6.29;78.95
9525;BME280;15940;48.734;9.112;2023-05-18T02:38:38;97071.63;;;6.27;78.20
9525;BME280;15940;48.734;9.112;2023-05-18T02:41:07;97080.72;;;6.30;79.53
9525;BME280;15940;48.734;9.112;2023-05-18T02:43:34;97066.09;;;6.31;79.07
9525;BME280;15940;48.734;9.112;2023-05-18T02:46:01;97071.78;;;6.33;78.60
9525;BME280;15940;48.734;9.112;2023-05-18T02:48:29;97067.59;;;6.32;78.71
9525;BME280;15940;48.734;9.112;2023-05-18T02:50:56;97063.69;;;6.33;79.13
9525;BME280;15940;48.734;9.112;2023-05-18T02:53:23;97060.53;;;6.16;78.97
9525;BME280;15940;48.734;9.112;2023-05-18T02:55:53;97059.63;;;6.10;79.43
9525;BME280;15940;48.734;9.112;2023-05-18T02:58:22;97062.78;;;6.18;79.65
9525;BME280;15940;48.734;9.112;2023-05-18T03:00:50;97056.50;;;6.21;79.01
9525;BME280;15940;48.734;9.112;2023-05-18T03:03:19;97065.59;;;6.14;79.46
9525;BME280;15940;48.734;9.112;2023-05-18T03:05:49;97058.44;;;6.20;79.19
9525;BME280;15940;48.734;9.112;2023-05-18T03:08:18;97072.50;;;6.24;79.37
9525;BME280;15940;48.734;9.112;2023-05-18T03:10:45;97062.75;;;6.09;79.29
9525;BME280;15940;48.734;9.112;2023-05-18T03:13:12;97067.06;;;6.06;79.83
9525;BME280;15940;48.734;9.112;2023-05-18T03:15:39;97057.06;;;6.07;80.33
9525;BME280;15940;48.734;9.112;2023-05-18T03:18:06;97060.81;;;6.09;79.25
9525;BME280;15940;48.734;9.112;2023-05-18T03:20:33;97052.28;;;6.11;80.54
9525;BME280;15940;48.734;9.112;2023-05-18T03:23:03;97062.13;;;6.05;79.08
9525;BME280;15940;48.734;9.112;2023-05-18T03:25:30;97057.22;;;6.12;79.56
9525;BME280;15940;48.734;9.112;2023-05-18T03:27:57;97057.84;;;6.16;78.87
9525;BME280;15940;48.734;9.112;2023-05-18T03:30:24;97061.22;;;5.98;80.25
9525;BME280;15940;48.734;9.112;2023-05-18T03:32:51;97062.84;;;5.96;80.36
9525;BME280;15940;48.734;9.112;2023-05-18T03:35:18;97059.41;;;5.95;79.75
9525;BME280;15940;48.734;9.112;2023-05-18T03:37:45;97061.22;;;5.98;79.91
9525;BME280;15940;48.734;9.112;2023-05-18T03:40:15;97070.69;;;5.81;80.91
9525;BME280;15940;48.734;9.112;2023-05-18T03:42:42;97062.91;;;5.83;79.70
9525;BME280;15940;48.734;9.112;2023-05-18T03:45:10;97061.72;;;5.84;80.32
9525;BME280;15940;48.734;9.112;2023-05-18T03:47:38;97060.38;;;5.80;78.59
9525;BME280;15940;48.734;9.112;2023-05-18T03:50:06;97073.38;;;5.81;80.83
9525;BME280;15940;48.734;9.112;2023-05-18T03:52:34;97070.38;;;5.79;80.01
9525;BME280;15940;48.734;9.112;2023-05-18T03:55:03;97076.00;;;5.72;80.21
9525;BME280;15940;48.734;9.112;2023-05-18T03:57:31;97076.44;;;5.92;80.37
9525;BME280;15940;48.734;9.112;2023-05-18T03:59:58;97073.91;;;5.98;79.80
9525;BME280;15940;48.734;9.112;2023-05-18T04:02:25;97076.50;;;6.11;79.36
9525;BME280;15940;48.734;9.112;2023-05-18T04:04:52;97075.44;;;6.08;79.24
9525;BME280;15940;48.734;9.112;2023-05-18T04:07:19;97075.78;;;6.19;79.35
9525;BME280;15940;48.734;9.112;2023-05-18T04:09:49;97075.78;;;6.19;78.68
9525;BME280;15940;48.734;9.112;2023-05-18T04:12:16;97080.94;;;6.05;78.10
9525;BME280;15940;48.734;9.112;2023-05-18T04:14:44;97085.75;;;6.10;80.44
9525;BME280;15940;48.734;9.112;2023-05-18T04:17:15;97088.31;;;6.13;78.27
9525;BME280;15940;48.734;9.112;2023-05-18T04:19:42;97091.00;;;6.13;78.87
9525;BME280;15940;48.734;9.112;2023-05-18T04:22:10;97092.38;;;6.18;79.46
9525;BME280;15940;48.734;9.112;2023-05-18T04:24:37;97099.53;;;6.21;78.45
9525;BME280;15940;48.734;9.112;2023-05-18T04:27:06;97098.09;;;6.38;79.06
9525;BME280;15940;48.734;9.112;2023-05-18T04:29:34;97097.22;;;6.50;78.22
9525;BME280;15940;48.734;9.112;2023-05-18T04:32:05;97100.63;;;6.42;77.74
9525;BME280;15940;48.734;9.112;2023-05-18T04:34:33;97099.16;;;6.50;77.24
9525;BME280;15940;48.734;9.112;2023-05-18T04:37:00;97104.41;;;6.63;78.54
9525;BME280;15940;48.734;9.112;2023-05-18T04:39:30;97109.06;;;6.71;77.59
9525;BME280;15940;48.734;9.112;2023-05-18T04:41:57;97108.78;;;6.69;77.70
9525;BME280;15940;48.734;9.112;2023-05-18T04:44:25;97106.53;;;6.68;77.50
9525;BME280;15940;48.734;9.112;2023-05-18T04:46:53;97106.84;;;6.79;77.85
9525;BME280;15940;48.734;9.112;2023-05-18T04:49:22;97114.66;;;6.95;76.68
9525;BME280;15940;48.734;9.112;2023-05-18T04:51:52;97105.94;;;6.91;76.99
9525;BME280;15940;48.734;9.112;2023-05-18T04:54:21;97107.59;;;6.88;77.53
9525;BME280;15940;48.734;9.112;2023-05-18T04:56:49;97107.88;;;6.91;76.90
9525;BME280;15940;48.734;9.112;2023-05-18T04:59:16;97107.00;;;6.94;76.18
9525;BME280;15940;48.734;9.112;2023-05-18T05:01:44;97111.19;;;6.85;76.58
9525;BME280;15940;48.734;9.112;2023-05-18T05:04:11;97117.75;;;6.75;76.88
9525;BME280;15940;48.734;9.112;2023-05-18T05:06:40;97111.31;;;6.64;76.42
9525;BME280;15940;48.734;9.112;2023-05-18T05:09:06;97109.03;;;6.53;78.15
9525;BME280;15940;48.734;9.112;2023-05-18T05:11:33;97118.91;;;6.47;77.78
9525;BME280;15940;48.734;9.112;2023-05-18T05:14:01;97117.25;;;6.49;77.57
9525;BME280;15940;48.734;9.112;2023-05-18T05:16:28;97116.81;;;6.51;78.70
9525;BME280;15940;48.734;9.112;2023-05-18T05:18:55;97117.41;;;6.46;78.17
9525;BME280;15940;48.734;9.112;2023-05-18T05:21:22;97114.38;;;6.35;78.15
9525;BME280;15940;48.734;9.112;2023-05-18T05:23:51;97114.53;;;6.40;79.02
9525;BME280;15940;48.734;9.112;2023-05-18T05:26:18;97122.44;;;6.35;78.47
9525;BME280;15940;48.734;9.112;2023-05-18T05:28:46;97112.13;;;6.33;78.78
9525;BME280;15940;48.734;9.112;2023-05-18T05:31:13;97114.97;;;6.29;78.31
9525;BME280;15940;48.734;9.112;2023-05-18T05:33:40;97115.44;;;6.37;79.07
9525;BME280;15940;48.734;9.112;2023-05-18T05:36:08;97125.16;;;6.44;78.29
9525;BME280;15940;48.734;9.112;2023-05-18T05:38:35;97123.22;;;6.53;78.27
9525;BME280;15940;48.734;9.112;2023-05-18T05:41:03;97121.63;;;6.56;78.50
9525;BME280;15940;48.734;9.112;2023-05-18T05:43:30;97115.94;;;6.54;77.57
9525;BME280;15940;48.734;9.112;2023-05-18T05:45:57;97120.53;;;6.53;76.28
9525;BME280;15940;48.734;9.112;2023-05-18T05:48:24;97126.56;;;6.57;77.80
9525;BME280;15940;48.734;9.112;2023-05-18T05:50:51;97123.88;;;6.67;76.16
9525;BME280;15940;48.734;9.112;2023-05-18T05:53:18;97115.94;;;6.72;77.79
9525;BME280;15940;48.734;9.112;2023-05-18T05:55:45;97124.50;;;6.89;78.20
9525;BME280;15940;48.734;9.112;2023-05-18T05:58:13;97122.84;;;7.01;77.68
9525;BME280;15940;48.734;9.112;2023-05-18T06:00:40;97123.31;;;7.18;77.53
9525;BME280;15940;48.734;9.112;2023-05-18T06:03:08;97120.91;;;7.29;76.75
9525;BME280;15940;48.734;9.112;2023-05-18T06:05:35;97126.00;;;7.27;77.04
9525;BME280;15940;48.734;9.112;2023-05-18T06:08:02;97118.84;;;7.24;75.89
9525;BME280;15940;48.734;9.112;2023-05-18T06:10:29;97127.81;;;7.30;75.42
9525;BME280;15940;48.734;9.112;2023-05-18T06:12:56;97127.03;;;7.38;74.99
9525;BME280;15940;48.734;9.112;2023-05-18T06:15:25;97126.16;;;7.51;74.50
9525;BME280;15940;48.734;9.112;2023-05-18T06:17:52;97123.72;;;7.62;74.50
9525;BME280;15940;48.734;9.112;2023-05-18T06:20:19;97123.25;;;7.72;73.85
9525;BME280;15940;48.734;9.112;2023-05-18T06:22:46;97128.78;;;7.87;74.08
9525;BME280;15940;48.734;9.112;2023-05-18T06:25:13;97128.91;;;7.93;72.67
9525;BME280;15940;48.734;9.112;2023-05-18T06:27:40;97132.47;;;7.99;72.60
9525;BME280;15940;48.734;9.112;2023-05-18T06:30:10;97125.88;;;8.00;70.35
9525;BME280;15940;48.734;9.112;2023-05-18T06:32:38;97124.47;;;8.14;70.38
9525;BME280;15940;48.734;9.112;2023-05-18T06:35:06;97115.31;;;8.20;70.01
9525;BME280;15940;48.734;9.112;2023-05-18T06:37:33;97124.13;;;8.30;70.76
9525;BME280;15940;48.734;9.112;2023-05-18T06:40:00;97119.50;;;8.64;71.77
9525;BME280;15940;48.734;9.112;2023-05-18T06:42:28;97116.22;;;8.83;69.53
9525;BME280;15940;48.734;9.112;2023-05-18T06:44:56;97120.75;;;9.16;69.16
9525;BME280;15940;48.734;9.112;2023-05-18T06:47:23;97128.28;;;9.51;67.60
9525;BME280;15940;48.734;9.112;2023-05-18T06:49:51;97125.97;;;9.88;66.72
9525;BME280;15940;48.734;9.112;2023-05-18T06:52:18;97136.66;;;10.41;65.10
9525;BME280;15940;48.734;9.112;2023-05-18T06:54:45;97129.66;;;10.70;63.66
9525;BME280;15940;48.734;9.112;2023-05-18T06:57:12;97130.44;;;10.91;63.07
9525;BME280;15940;48.734;9.112;2023-05-18T06:59:39;97126.47;;;11.12;60.24
9525;BME280;15940;48.734;9.112;2023-05-18T07:02:06;97128.59;;;11.49;61.80
9525;BME280;15940;48.734;9.112;2023-05-18T07:04:33;97129.69;;;11.36;59.92
9525;BME280;15940;48.734;9.112;2023-05-18T07:07:01;97128.78;;;11.19;60.20
9525;BME280;15940;48.734;9.112;2023-05-18T07:09:28;97130.31;;;11.26;60.61
9525;BME280;15940;48.734;9.112;2023-05-18T07:11:55;97131.03;;;11.21;60.36
9525;BME280;15940;48.734;9.112;2023-05-18T07:14:22;97136.59;;;11.11;63.14
9525;BME280;15940;48.734;9.112;2023-05-18T07:16:49;97131.22;;;11.17;61.54
9525;BME280;15940;48.734;9.112;2023-05-18T07:19:16;97133.72;;;11.21;61.63
9525;BME280;15940;48.734;9.112;2023-05-18T07:21:43;97131.66;;;11.36;61.93
9525;BME280;15940;48.734;9.112;2023-05-18T07:24:11;97138.00;;;11.53;61.40
9525;BME280;15940;48.734;9.112;2023-05-18T07:26:38;97142.22;;;11.54;62.55
9525;BME280;15940;48.734;9.112;2023-05-18T07:29:05;97135.63;;;11.61;60.84
9525;BME280;15940;48.734;9.112;2023-05-18T07:31:35;97143.19;;;11.77;60.62
9525;BME280;15940;48.734;9.112;2023-05-18T07:34:05;97140.91;;;11.96;60.84
9525;BME280;15940;48.734;9.112;2023-05-18T07:36:32;97137.97;;;11.99;59.92
9525;BME280;15940;48.734;9.112;2023-05-18T07:38:59;97129.91;;;12.11;60.51
9525;BME280;15940;48.734;9.112;2023-05-18T07:41:27;97128.47;;;12.15;61.55
9525;BME280;15940;48.734;9.112;2023-05-18T07:43:56;97124.31;;;12.20;59.22
9525;BME280;15940;48.734;9.112;2023-05-18T07:46:23;97126.34;;;12.30;59.42
9525;BME280;15940;48.734;9.112;2023-05-18T07:48:50;97126.91;;;12.40;60.58
9525;BME280;15940;48.734;9.112;2023-05-18T07:51:17;97124.53;;;12.59;59.67
9525;BME280;15940;48.734;9.112;2023-05-18T07:53:44;97116.25;;;12.74;60.84
9525;BME280;15940;48.734;9.112;2023-05-18T07:56:11;97119.53;;;12.95;60.42
9525;BME280;15940;48.734;9.112;2023-05-18T07:58:40;97118.63;;;13.14;59.55
9525;BME280;15940;48.734;9.112;2023-05-18T08:01:07;97118.22;;;13.27;58.30
9525;BME280;15940;48.734;9.112;2023-05-18T08:03:34;97118.72;;;13.31;57.01
9525;BME280;15940;48.734;9.112;2023-05-18T08:06:01;97121.69;;;13.39;59.45
9525;BME280;15940;48.734;9.112;2023-05-18T08:08:28;97125.19;;;13.51;58.00
9525;BME280;15940;48.734;9.112;2023-05-18T08:10:55;97116.53;;;13.58;57.90
9525;BME280;15940;48.734;9.112;2023-05-18T08:13:22;97117.56;;;13.88;57.42
9525;BME280;15940;48.734;9.112;2023-05-18T08:15:50;97116.56;;;13.97;56.46
9525;BME280;15940;48.734;9.112;2023-05-18T08:18:17;97121.03;;;13.94;55.11
9525;BME280;15940;48.734;9.112;2023-05-18T08:20:44;97126.47;;;14.00;55.93
9525;BME280;15940;48.734;9.112;2023-05-18T08:23:11;97123.00;;;13.99;56.76
9525;BME280;15940;48.734;9.112;2023-05-18T08:25:38;97120.03;;;13.97;56.71
9525;BME280;15940;48.734;9.112;2023-05-18T08:28:05;97118.53;;;14.19;55.09
9525;BME280;15940;48.734;9.112;2023-05-18T08:30:32;97117.28;;;14.42;56.28
9525;BME280;15940;48.734;9.112;2023-05-18T08:33:00;97117.25;;;14.65;54.02
9525;BME280;15940;48.734;9.112;2023-05-18T08:35:27;97106.84;;;14.69;53.92
9525;BME280;15940;48.734;9.112;2023-05-18T08:37:54;97104.09;;;14.80;52.97
9525;BME280;15940;48.734;9.112;2023-05-18T08:40:24;97103.03;;;15.00;53.65
9525;BME280;15940;48.734;9.112;2023-05-18T08:43:02;97101.50;;;15.04;55.19
9525;BME280;15940;48.734;9.112;2023-05-18T08:45:38;97111.09;;;15.28;57.13
9525;BME280;15940;48.734;9.112;2023-05-18T08:48:07;97104.59;;;15.31;51.72
9525;BME280;15940;48.734;9.112;2023-05-18T08:50:37;97100.22;;;15.17;50.00
9525;BME280;15940;48.734;9.112;2023-05-18T08:53:08;97102.00;;;15.08;51.89
9525;BME280;15940;48.734;9.112;2023-05-18T08:55:36;97099.47;;;15.16;51.55
9525;BME280;15940;48.734;9.112;2023-05-18T08:58:06;97093.41;;;15.34;49.59
9525;BME280;15940;48.734;9.112;2023-05-18T09:00:35;97086.00;;;15.29;52.29
9525;BME280;15940;48.734;9.112;2023-05-18T09:03:03;97084.44;;;15.45;52.23
9525;BME280;15940;48.734;9.112;2023-05-18T09:05:32;97093.31;;;15.51;51.60
9525;BME280;15940;48.734;9.112;2023-05-18T09:07:59;97090.03;;;15.58;51.10
9525;BME280;15940;48.734;9.112;2023-05-18T09:10:27;97089.53;;;15.65;51.88
9525;BME280;15940;48.734;9.112;2023-05-18T09:12:55;97086.34;;;15.56;50.81
9525;BME280;15940;48.734;9.112;2023-05-18T09:15:22;97083.69;;;15.45;53.03
9525;BME280;15940;48.734;9.112;2023-05-18T09:17:51;97089.25;;;15.28;54.13
9525;BME280;15940;48.734;9.112;2023-05-18T09:20:18;97091.13;;;14.97;52.22
9525;BME280;15940;48.734;9.112;2023-05-18T09:22:47;97095.69;;;14.67;52.23
9525;BME280;15940;48.734;9.112;2023-05-18T09:25:17;97087.81;;;14.35;51.56
9525;BME280;15940;48.734;9.112;2023-05-18T09:30:08;97094.19;;;14.66;50.11
9525;BME280;15940;48.734;9.112;2023-05-18T09:32:36;97099.19;;;14.62;51.34
9525;BME280;15940;48.734;9.112;2023-05-18T09:35:03;97099.16;;;14.73;53.98
9525;BME280;15940;48.734;9.112;2023-05-18T09:37:32;97101.66;;;15.29;56.05
9525;BME280;15940;48.734;9.112;2023-05-18T09:40:02;97094.31;;;15.89;51.29
9525;BME280;15940;48.734;9.112;2023-05-18T09:42:34;97094.38;;;16.14;49.47
9525;BME280;15940;48.734;9.112;2023-05-18T09:45:14;97091.75;;;16.27;48.01
9525;BME280;15940;48.734;9.112;2023-05-18T09:47:41;97091.56;;;16.19;51.32
9525;BME280;15940;48.734;9.112;2023-05-18T09:50:09;97082.25;;;16.34;51.36
9525;BME280;15940;48.734;9.112;2023-05-18T09:52:40;97087.34;;;16.67;49.27
9525;BME280;15940;48.734;9.112;2023-05-18T09:55:09;97088.69;;;16.61;47.75
9525;BME280;15940;48.734;9.112;2023-05-18T09:57:41;97085.91;;;16.42;47.93
9525;BME280;15940;48.734;9.112;2023-05-18T10:00:11;97078.91;;;16.22;49.37
9525;BME280;15940;48.734;9.112;2023-05-18T10:05:22;97077.72;;;15.82;49.64
9525;BME280;15940;48.734;9.112;2023-05-18T10:07:50;97071.19;;;15.90;49.30
9525;BME280;15940;48.734;9.112;2023-05-18T10:10:18;97063.06;;;15.49;47.64
9525;BME280;15940;48.734;9.112;2023-05-18T10:12:46;97077.16;;;15.12;50.89
9525;BME280;15940;48.734;9.112;2023-05-18T10:15:14;97075.66;;;15.63;50.98
9525;BME280;15940;48.734;9.112;2023-05-18T10:17:42;97059.91;;;16.29;51.05
9525;BME280;15940;48.734;9.112;2023-05-18T10:20:10;97062.75;;;16.67;52.20
9525;BME280;15940;48.734;9.112;2023-05-18T10:22:45;97061.94;;;16.97;48.93
9525;BME280;15940;48.734;9.112;2023-05-18T10:25:18;97066.88;;;16.79;48.74
9525;BME280;15940;48.734;9.112;2023-05-18T10:27:47;97058.22;;;16.94;52.54
9525;BME280;15940;48.734;9.112;2023-05-18T10:30:15;97052.88;;;17.39;48.57
9525;BME280;15940;48.734;9.112;2023-05-18T10:32:43;97054.59;;;17.24;49.03
9525;BME280;15940;48.734;9.112;2023-05-18T10:35:11;97055.31;;;17.43;47.97
9525;BME280;15940;48.734;9.112;2023-05-18T10:40:07;97054.38;;;17.91;47.73
9525;BME280;15940;48.734;9.112;2023-05-18T10:42:34;97062.47;;;17.97;43.69
9525;BME280;15940;48.734;9.112;2023-05-18T10:45:02;97063.53;;;17.94;46.95
9525;BME280;15940;48.734;9.112;2023-05-18T10:47:29;97061.63;;;17.89;45.14
9525;BME280;15940;48.734;9.112;2023-05-18T10:49:58;97048.56;;;17.63;43.14
9525;BME280;15940;48.734;9.112;2023-05-18T10:54:50;97045.25;;;17.32;46.08
9525;BME280;15940;48.734;9.112;2023-05-18T10:57:19;97045.56;;;17.29;48.67
9525;BME280;15940;48.734;9.112;2023-05-18T10:59:46;97044.88;;;17.41;46.18
9525;BME280;15940;48.734;9.112;2023-05-18T11:02:17;97045.91;;;17.57;47.39
9525;BME280;15940;48.734;9.112;2023-05-18T11:04:46;97054.44;;;17.86;47.77
9525;BME280;15940;48.734;9.112;2023-05-18T11:07:13;97057.53;;;18.09;47.40
9525;BME280;15940;48.734;9.112;2023-05-18T11:09:41;97049.75;;;18.26;44.01
9525;BME280;15940;48.734;9.112;2023-05-18T11:12:12;97036.91;;;18.34;42.68
9525;BME280;15940;48.734;9.112;2023-05-18T11:14:48;97046.69;;;18.16;43.80
9525;BME280;15940;48.734;9.112;2023-05-18T11:17:20;97049.56;;;18.37;45.32
9525;BME280;15940;48.734;9.112;2023-05-18T11:20:13;97043.25;;;18.42;45.99
9525;BME280;15940;48.734;9.112;2023-05-18T11:22:45;97038.28;;;18.41;42.73
9525;BME280;15940;48.734;9.112;2023-05-18T11:25:38;97037.94;;;18.18;43.99
9525;BME280;15940;48.734;9.112;2023-05-18T11:28:09;97049.16;;;18.20;44.06
9525;BME280;15940;48.734;9.112;2023-05-18T11:30:49;97049.69;;;18.32;46.17
9525;BME280;15940;48.734;9.112;2023-05-18T11:33:24;97032.25;;;18.03;43.15
9525;BME280;15940;48.734;9.112;2023-05-18T11:35:58;97048.06;;;18.10;42.38
9525;BME280;15940;48.734;9.112;2023-05-18T11:38:46;97036.69;;;18.32;42.33
9525;BME280;15940;48.734;9.112;2023-05-18T11:41:30;97032.28;;;18.42;45.87
9525;BME280;15940;48.734;9.112;2023-05-18T11:44:14;97021.84;;;18.67;45.01
9525;BME280;15940;48.734;9.112;2023-05-18T11:47:08;97036.28;;;18.81;44.55
9525;BME280;15940;48.734;9.112;2023-05-18T11:49:42;97039.97;;;18.44;41.19
9525;BME280;15940;48.734;9.112;2023-05-18T11:52:16;97034.16;;;18.34;40.26
9525;BME280;15940;48.734;9.112;2023-05-18T11:54:47;97021.84;;;18.67;42.24
9525;BME280;15940;48.734;9.112;2023-05-18T11:57:16;97028.44;;;18.98;46.82
9525;BME280;15940;48.734;9.112;2023-05-18T11:59:47;97023.78;;;19.06;41.33
9525;BME280;15940;48.734;9.112;2023-05-18T12:02:19;97022.56;;;18.54;41.52
9525;BME280;15940;48.734;9.112;2023-05-18T12:04:48;97018.44;;;18.74;46.32
9525;BME280;15940;48.734;9.112;2023-05-18T12:07:17;97017.38;;;18.64;44.18
9525;BME280;15940;48.734;9.112;2023-05-18T12:09:45;97023.72;;;18.59;44.15
9525;BME280;15940;48.734;9.112;2023-05-18T12:12:14;97012.75;;;18.72;43.34
9525;BME280;15940;48.734;9.112;2023-05-18T12:14:55;97008.72;;;18.60;41.50
9525;BME280;15940;48.734;9.112;2023-05-18T12:17:22;97015.19;;;18.23;42.61
9525;BME280;15940;48.734;9.112;2023-05-18T12:19:50;97011.69;;;18.36;43.38
9525;BME280;15940;48.734;9.112;2023-05-18T12:22:16;97006.28;;;18.83;44.76
9525;BME280;15940;48.734;9.112;2023-05-18T12:24:43;96995.69;;;19.00;39.32
9525;BME280;15940;48.734;9.112;2023-05-18T12:27:11;97007.91;;;19.12;43.33
9525;BME280;15940;48.734;9.112;2023-05-18T12:29:40;96995.22;;;18.75;40.61
9525;BME280;15940;48.734;9.112;2023-05-18T12:32:10;97004.63;;;18.40;41.93
9525;BME280;15940;48.734;9.112;2023-05-18T12:34:38;96994.72;;;18.50;44.76
9525;BME280;15940;48.734;9.112;2023-05-18T12:37:06;97000.63;;;18.41;42.16
9525;BME280;15940;48.734;9.112;2023-05-18T12:39:34;97010.31;;;18.03;44.46
9525;BME280;15940;48.734;9.112;2023-05-18T12:42:11;97004.59;;;17.87;42.86
9525;BME280;15940;48.734;9.112;2023-05-18T12:44:40;96999.78;;;18.20;42.33
9525;BME280;15940;48.734;9.112;2023-05-18T12:47:11;96999.25;;;18.21;41.98
9525;BME280;15940;48.734;9.112;2023-05-18T12:49:41;96993.34;;;17.91;44.94
9525;BME280;15940;48.734;9.112;2023-05-18T12:52:15;96995.16;;;17.69;43.65
9525;BME280;15940;48.734;9.112;2023-05-18T12:54:49;96997.22;;;17.82;48.93
9525;BME280;15940;48.734;9.112;2023-05-18T12:57:20;96992.38;;;18.15;41.61
9525;BME280;15940;48.734;9.112;2023-05-18T12:59:50;96990.59;;;18.04;45.17
9525;BME280;15940;48.734;9.112;2023-05-18T13:02:40;96982.47;;;17.98;43.64
9525;BME280;15940;48.734;9.112;2023-05-18T13:05:09;96986.28;;;18.35;48.39
9525;BME280;15940;48.734;9.112;2023-05-18T13:07:38;96988.72;;;18.39;42.06
9525;BME280;15940;48.734;9.112;2023-05-18T13:10:08;96989.63;;;18.54;42.97
9525;BME280;15940;48.734;9.112;2023-05-18T13:12:41;96980.56;;;18.46;42.35
9525;BME280;15940;48.734;9.112;2023-05-18T13:15:14;96991.34;;;18.18;43.28
9525;BME280;15940;48.734;9.112;2023-05-18T13:17:55;96991.44;;;17.99;44.44
9525;BME280;15940;48.734;9.112;2023-05-18T13:20:28;96990.91;;;18.01;44.48
9525;BME280;15940;48.734;9.112;2023-05-18T13:22:55;96983.84;;;18.05;43.56
9525;BME280;15940;48.734;9.112;2023-05-18T13:25:24;96985.56;;;18.21;41.62
9525;BME280;15940;48.734;9.112;2023-05-18T13:27:51;96987.84;;;18.17;44.11
9525;BME280;15940;48.734;9.112;2023-05-18T13:30:19;96987.66;;;18.15;45.28
9525;BME280;15940;48.734;9.112;2023-05-18T13:32:48;96979.66;;;18.31;44.65
9525;BME280;15940;48.734;9.112;2023-05-18T13:35:16;96984.56;;;18.45;43.18
9525;BME280;15940;48.734;9.112;2023-05-18T13:37:44;96985.03;;;18.23;43.92